sensor_id;sensor_type;location;lat;lon;timestamp;P1;durP1;ratioP1;P2;durP2;ratioP2
12302;SDS011;6214;48.012;7.862;2022-11-15T00:00:49;13.20;;;2.70;;
12302;SDS011;6214;48.012;7.862;2022-11-15T00:03:17;12.45;;;2.65;;
12302;SDS011;6214;48.012;7.862;2022-11-15T00:05:46;13.13;;;2.60;;
12302;SDS011;6214;48.012;7.862;2022-11-15T00:08:13;12.27;;;2.67;;
12302;SDS011;6214;48.012;7.862;2022-11-15T00:10:40;13.80;;;1.95;;
12302;SDS011;6214;48.012;7.862;2022-11-15T00:13:11;11.85;;;1.95;;
12302;SDS011;6214;48.012;7.862;2022-11-15T00:15:39;12.73;;;1.90;;
12302;SDS011;6214;48.012;7.862;2022-11-15T00:18:11;14.13;;;2.17;;
12302;SDS011;6214;48.012;7.862;2022-11-15T00:20:39;14.68;;;4.13;;
12302;SDS011;6214;48.012;7.862;2022-11-15T00:23:06;12.68;;;2.28;;
12302;SDS011;6214;48.012;7.862;2022-11-15T00:25:33;12.48;;;2.05;;
12302;SDS011;6214;48.012;7.862;2022-11-15T00:28:00;12.20;;;1.85;;
12302;SDS011;6214;48.012;7.862;2022-11-15T00:30:28;12.10;;;1.90;;
12302;SDS011;6214;48.012;7.862;2022-11-15T00:32:55;12.05;;;1.80;;
12302;SDS011;6214;48.012;7.862;2022-11-15T00:35:22;13.90;;;2.00;;
12302;SDS011;6214;48.012;7.862;2022-11-15T00:37:49;12.40;;;2.00;;
12302;SDS011;6214;48.012;7.862;2022-11-15T00:40:15;12.90;;;2.40;;
12302;SDS011;6214;48.012;7.862;2022-11-15T00:42:42;12.60;;;2.00;;
12302;SDS011;6214;48.012;7.862;2022-11-15T00:45:09;12.40;;;2.00;;
12302;SDS011;6214;48.012;7.862;2022-11-15T00:47:36;12.50;;;1.90;;
12302;SDS011;6214;48.012;7.862;2022-11-15T00:50:03;13.00;;;2.75;;
12302;SDS011;6214;48.012;7.862;2022-11-15T00:52:30;12.80;;;2.10;;
12302;SDS011;6214;48.012;7.862;2022-11-15T00:54:57;13.57;;;2.60;;
12302;SDS011;6214;48.012;7.862;2022-11-15T00:57:24;13.40;;;2.30;;
12302;SDS011;6214;48.012;7.862;2022-11-15T00:59:50;15.95;;;3.90;;
12302;SDS011;6214;48.012;7.862;2022-11-15T01:02:17;16.90;;;3.85;;
12302;SDS011;6214;48.012;7.862;2022-11-15T01:04:44;14.80;;;3.65;;
12302;SDS011;6214;48.012;7.862;2022-11-15T01:07:11;15.07;;;3.17;;
12302;SDS011;6214;48.012;7.862;2022-11-15T01:09:38;14.73;;;3.85;;
12302;SDS011;6214;48.012;7.862;2022-11-15T01:12:05;12.70;;;2.50;;
12302;SDS011;6214;48.012;7.862;2022-11-15T01:14:31;13.47;;;3.10;;
12302;SDS011;6214;48.012;7.862;2022-11-15T01:16:58;16.40;;;3.60;;
12302;SDS011;6214;48.012;7.862;2022-11-15T01:19:25;13.63;;;3.00;;
12302;SDS011;6214;48.012;7.862;2022-11-15T01:21:52;14.80;;;3.22;;
12302;SDS011;6214;48.012;7.862;2022-11-15T01:24:18;13.63;;;3.00;;
12302;SDS011;6214;48.012;7.862;2022-11-15T01:26:45;17.70;;;4.13;;
12302;SDS011;6214;48.012;7.862;2022-11-15T01:29:12;14.90;;;3.47;;
12302;SDS011;6214;48.012;7.862;2022-11-15T01:31:39;14.20;;;2.90;;
12302;SDS011;6214;48.012;7.862;2022-11-15T01:34:05;12.60;;;1.98;;
12302;SDS011;6214;48.012;7.862;2022-11-15T01:36:32;11.27;;;1.30;;
12302;SDS011;6214;48.012;7.862;2022-11-15T01:38:59;11.38;;;1.10;;
12302;SDS011;6214;48.012;7.862;2022-11-15T01:41:29;11.20;;;1.20;;
12302;SDS011;6214;48.012;7.862;2022-11-15T01:47:03;10.82;;;1.00;;
12302;SDS011;6214;48.012;7.862;2022-11-15T01:49:34;11.00;;;1.20;;
12302;SDS011;6214;48.012;7.862;2022-11-15T01:52:04;10.90;;;1.10;;
12302;SDS011;6214;48.012;7.862;2022-11-15T01:54:34;11.50;;;1.20;;
12302;SDS011;6214;48.012;7.862;2022-11-15T01:57:03;11.80;;;1.10;;
12302;SDS011;6214;48.012;7.862;2022-11-15T01:59:34;11.40;;;1.30;;
12302;SDS011;6214;48.012;7.862;2022-11-15T02:02:01;12.30;;;1.50;;
12302;SDS011;6214;48.012;7.862;2022-11-15T02:04:28;12.30;;;1.23;;
12302;SDS011;6214;48.012;7.862;2022-11-15T02:06:58;11.63;;;1.30;;
12302;SDS011;6214;48.012;7.862;2022-11-15T02:09:28;11.00;;;1.30;;
12302;SDS011;6214;48.012;7.862;2022-11-15T02:11:55;12.00;;;1.40;;
12302;SDS011;6214;48.012;7.862;2022-11-15T02:14:23;11.35;;;1.17;;
12302;SDS011;6214;48.012;7.862;2022-11-15T02:25:25;11.20;;;1.30;;
12302;SDS011;6214;48.012;7.862;2022-11-15T02:39:23;11.30;;;1.13;;
12302;SDS011;6214;48.012;7.862;2022-11-15T02:42:09;12.00;;;1.20;;
12302;SDS011;6214;48.012;7.862;2022-11-15T02:45:01;11.10;;;1.10;;
12302;SDS011;6214;48.012;7.862;2022-11-15T02:47:34;11.20;;;1.20;;
12302;SDS011;6214;48.012;7.862;2022-11-15T02:50:10;11.48;;;1.10;;
12302;SDS011;6214;48.012;7.862;2022-11-15T02:52:39;10.90;;;1.00;;
12302;SDS011;6214;48.012;7.862;2022-11-15T02:55:25;10.80;;;0.90;;
12302;SDS011;6214;48.012;7.862;2022-11-15T03:00:35;11.77;;;1.20;;
12302;SDS011;6214;48.012;7.862;2022-11-15T03:03:11;11.20;;;1.20;;
12302;SDS011;6214;48.012;7.862;2022-11-15T03:06:07;11.30;;;1.30;;
12302;SDS011;6214;48.012;7.862;2022-11-15T03:09:40;12.27;;;1.20;;
12302;SDS011;6214;48.012;7.862;2022-11-15T03:11:59;11.27;;;1.13;;
12302;SDS011;6214;48.012;7.862;2022-11-15T03:14:34;11.30;;;1.13;;
12302;SDS011;6214;48.012;7.862;2022-11-15T03:17:19;11.52;;;1.10;;
12302;SDS011;6214;48.012;7.862;2022-11-15T03:19:56;12.15;;;1.10;;
12302;SDS011;6214;48.012;7.862;2022-11-15T03:22:26;11.20;;;1.40;;
12302;SDS011;6214;48.012;7.862;2022-11-15T03:24:57;11.05;;;1.30;;
12302;SDS011;6214;48.012;7.862;2022-11-15T03:27:28;11.40;;;1.30;;
12302;SDS011;6214;48.012;7.862;2022-11-15T03:30:00;11.40;;;1.30;;
12302;SDS011;6214;48.012;7.862;2022-11-15T03:32:31;11.60;;;1.40;;
12302;SDS011;6214;48.012;7.862;2022-11-15T03:35:21;12.40;;;1.90;;
12302;SDS011;6214;48.012;7.862;2022-11-15T03:40:41;12.32;;;2.00;;
12302;SDS011;6214;48.012;7.862;2022-11-15T03:43:27;12.90;;;2.00;;
12302;SDS011;6214;48.012;7.862;2022-11-15T03:46:16;12.88;;;2.00;;
12302;SDS011;6214;48.012;7.862;2022-11-15T03:48:51;12.10;;;2.10;;
12302;SDS011;6214;48.012;7.862;2022-11-15T03:51:25;12.52;;;1.95;;
12302;SDS011;6214;48.012;7.862;2022-11-15T03:53:52;11.50;;;1.60;;
12302;SDS011;6214;48.012;7.862;2022-11-15T03:56:18;11.57;;;1.67;;
12302;SDS011;6214;48.012;7.862;2022-11-15T03:58:45;12.50;;;2.20;;
12302;SDS011;6214;48.012;7.862;2022-11-15T04:01:12;12.90;;;2.40;;
12302;SDS011;6214;48.012;7.862;2022-11-15T04:03:39;12.65;;;2.17;;
12302;SDS011;6214;48.012;7.862;2022-11-15T04:06:05;12.93;;;2.30;;
12302;SDS011;6214;48.012;7.862;2022-11-15T04:08:32;12.90;;;2.60;;
12302;SDS011;6214;48.012;7.862;2022-11-15T04:10:59;12.60;;;2.83;;
12302;SDS011;6214;48.012;7.862;2022-11-15T04:13:27;12.48;;;2.50;;
12302;SDS011;6214;48.012;7.862;2022-11-15T04:15:54;12.50;;;2.60;;
12302;SDS011;6214;48.012;7.862;2022-11-15T04:18:21;12.27;;;2.28;;
12302;SDS011;6214;48.012;7.862;2022-11-15T04:20:48;12.48;;;2.60;;
12302;SDS011;6214;48.012;7.862;2022-11-15T04:23:34;13.38;;;2.70;;
12302;SDS011;6214;48.012;7.862;2022-11-15T04:26:20;12.57;;;2.50;;
12302;SDS011;6214;48.012;7.862;2022-11-15T04:28:48;12.40;;;2.37;;
12302;SDS011;6214;48.012;7.862;2022-11-15T04:31:33;12.73;;;2.50;;
12302;SDS011;6214;48.012;7.862;2022-11-15T04:34:00;12.10;;;2.10;;
12302;SDS011;6214;48.012;7.862;2022-11-15T04:36:27;12.45;;;2.20;;
12302;SDS011;6214;48.012;7.862;2022-11-15T04:39:12;12.10;;;2.40;;
12302;SDS011;6214;48.012;7.862;2022-11-15T04:41:39;13.65;;;2.38;;
12302;SDS011;6214;48.012;7.862;2022-11-15T04:44:06;12.20;;;2.20;;
12302;SDS011;6214;48.012;7.862;2022-11-15T04:46:33;14.38;;;2.50;;
12302;SDS011;6214;48.012;7.862;2022-11-15T04:49:00;13.63;;;2.65;;
12302;SDS011;6214;48.012;7.862;2022-11-15T04:51:26;12.70;;;2.53;;
12302;SDS011;6214;48.012;7.862;2022-11-15T04:53:53;13.50;;;2.60;;
12302;SDS011;6214;48.012;7.862;2022-11-15T04:56:20;13.30;;;2.40;;
12302;SDS011;6214;48.012;7.862;2022-11-15T04:58:49;12.40;;;2.35;;
12302;SDS011;6214;48.012;7.862;2022-11-15T05:01:16;12.80;;;2.50;;
12302;SDS011;6214;48.012;7.862;2022-11-15T05:03:44;13.20;;;2.50;;
12302;SDS011;6214;48.012;7.862;2022-11-15T05:06:29;13.20;;;2.50;;
12302;SDS011;6214;48.012;7.862;2022-11-15T05:08:56;12.15;;;2.30;;
12302;SDS011;6214;48.012;7.862;2022-11-15T05:11:23;13.00;;;2.67;;
12302;SDS011;6214;48.012;7.862;2022-11-15T05:13:50;13.05;;;2.50;;
12302;SDS011;6214;48.012;7.862;2022-11-15T05:16:17;12.73;;;2.50;;
12302;SDS011;6214;48.012;7.862;2022-11-15T05:18:44;12.73;;;2.40;;
12302;SDS011;6214;48.012;7.862;2022-11-15T05:21:12;12.82;;;3.00;;
12302;SDS011;6214;48.012;7.862;2022-11-15T05:23:40;12.20;;;2.40;;
12302;SDS011;6214;48.012;7.862;2022-11-15T05:26:08;11.93;;;2.50;;
12302;SDS011;6214;48.012;7.862;2022-11-15T05:28:36;12.80;;;2.40;;
12302;SDS011;6214;48.012;7.862;2022-11-15T05:31:04;13.18;;;2.50;;
12302;SDS011;6214;48.012;7.862;2022-11-15T05:33:36;12.30;;;2.38;;
12302;SDS011;6214;48.012;7.862;2022-11-15T05:36:38;12.40;;;2.30;;
12302;SDS011;6214;48.012;7.862;2022-11-15T05:39:00;12.20;;;2.50;;
12302;SDS011;6214;48.012;7.862;2022-11-15T05:41:32;11.80;;;2.20;;
12302;SDS011;6214;48.012;7.862;2022-11-15T05:44:03;12.45;;;2.40;;
12302;SDS011;6214;48.012;7.862;2022-11-15T05:46:33;11.88;;;2.30;;
12302;SDS011;6214;48.012;7.862;2022-11-15T05:49:03;12.20;;;2.40;;
12302;SDS011;6214;48.012;7.862;2022-11-15T05:51:32;12.20;;;2.30;;
12302;SDS011;6214;48.012;7.862;2022-11-15T05:54:00;12.63;;;2.57;;
12302;SDS011;6214;48.012;7.862;2022-11-15T05:56:28;14.75;;;2.50;;
12302;SDS011;6214;48.012;7.862;2022-11-15T05:58:55;12.80;;;2.20;;
12302;SDS011;6214;48.012;7.862;2022-11-15T06:01:25;12.20;;;2.30;;
12302;SDS011;6214;48.012;7.862;2022-11-15T06:03:53;13.20;;;2.30;;
12302;SDS011;6214;48.012;7.862;2022-11-15T06:06:20;12.20;;;2.42;;
12302;SDS011;6214;48.012;7.862;2022-11-15T06:08:47;12.97;;;2.10;;
12302;SDS011;6214;48.012;7.862;2022-11-15T06:11:14;12.60;;;2.03;;
12302;SDS011;6214;48.012;7.862;2022-11-15T06:13:41;11.57;;;2.03;;
12302;SDS011;6214;48.012;7.862;2022-11-15T06:16:08;12.20;;;2.30;;
12302;SDS011;6214;48.012;7.862;2022-11-15T06:18:34;12.48;;;2.20;;
12302;SDS011;6214;48.012;7.862;2022-11-15T06:21:04;12.53;;;2.10;;
12302;SDS011;6214;48.012;7.862;2022-11-15T06:23:32;11.68;;;2.10;;
12302;SDS011;6214;48.012;7.862;2022-11-15T06:26:01;12.00;;;2.30;;
12302;SDS011;6214;48.012;7.862;2022-11-15T06:28:30;13.30;;;3.08;;
12302;SDS011;6214;48.012;7.862;2022-11-15T06:31:04;12.70;;;2.60;;
12302;SDS011;6214;48.012;7.862;2022-11-15T06:33:32;13.98;;;2.80;;
12302;SDS011;6214;48.012;7.862;2022-11-15T06:36:04;12.85;;;2.40;;
12302;SDS011;6214;48.012;7.862;2022-11-15T06:38:37;12.10;;;2.30;;
12302;SDS011;6214;48.012;7.862;2022-11-15T06:41:04;12.38;;;2.30;;
12302;SDS011;6214;48.012;7.862;2022-11-15T06:43:33;12.30;;;2.40;;
12302;SDS011;6214;48.012;7.862;2022-11-15T06:46:00;11.80;;;2.20;;
12302;SDS011;6214;48.012;7.862;2022-11-15T06:48:29;12.98;;;2.20;;
12302;SDS011;6214;48.012;7.862;2022-11-15T06:50:59;12.60;;;2.40;;
12302;SDS011;6214;48.012;7.862;2022-11-15T06:53:27;11.80;;;2.30;;
12302;SDS011;6214;48.012;7.862;2022-11-15T06:56:02;12.93;;;2.42;;
12302;SDS011;6214;48.012;7.862;2022-11-15T06:58:31;11.73;;;2.35;;
12302;SDS011;6214;48.012;7.862;2022-11-15T07:00:59;12.52;;;2.40;;
12302;SDS011;6214;48.012;7.862;2022-11-15T07:03:27;13.70;;;2.58;;
12302;SDS011;6214;48.012;7.862;2022-11-15T07:05:55;12.40;;;2.30;;
12302;SDS011;6214;48.012;7.862;2022-11-15T07:08:30;12.13;;;2.00;;
12302;SDS011;6214;48.012;7.862;2022-11-15T07:10:58;12.45;;;2.50;;
12302;SDS011;6214;48.012;7.862;2022-11-15T07:13:26;11.50;;;2.10;;
12302;SDS011;6214;48.012;7.862;2022-11-15T07:15:55;12.25;;;2.53;;
12302;SDS011;6214;48.012;7.862;2022-11-15T07:18:22;12.40;;;2.60;;
12302;SDS011;6214;48.012;7.862;2022-11-15T07:20:48;13.70;;;3.15;;
12302;SDS011;6214;48.012;7.862;2022-11-15T07:23:15;13.57;;;3.20;;
12302;SDS011;6214;48.012;7.862;2022-11-15T07:25:42;13.32;;;3.10;;
12302;SDS011;6214;48.012;7.862;2022-11-15T07:28:09;13.75;;;2.72;;
12302;SDS011;6214;48.012;7.862;2022-11-15T07:30:36;13.20;;;2.90;;
12302;SDS011;6214;48.012;7.862;2022-11-15T07:33:10;12.43;;;2.80;;
12302;SDS011;6214;48.012;7.862;2022-11-15T07:35:36;13.93;;;3.20;;
12302;SDS011;6214;48.012;7.862;2022-11-15T07:38:03;13.40;;;2.67;;
12302;SDS011;6214;48.012;7.862;2022-11-15T07:40:30;12.82;;;3.00;;
12302;SDS011;6214;48.012;7.862;2022-11-15T07:43:05;13.32;;;2.47;;
12302;SDS011;6214;48.012;7.862;2022-11-15T07:45:33;12.60;;;2.83;;
12302;SDS011;6214;48.012;7.862;2022-11-15T07:48:00;15.20;;;3.00;;
12302;SDS011;6214;48.012;7.862;2022-11-15T07:50:27;15.25;;;3.78;;
12302;SDS011;6214;48.012;7.862;2022-11-15T07:52:57;14.02;;;3.65;;
12302;SDS011;6214;48.012;7.862;2022-11-15T07:55:27;12.98;;;3.60;;
12302;SDS011;6214;48.012;7.862;2022-11-15T07:58:02;14.05;;;3.80;;
12302;SDS011;6214;48.012;7.862;2022-11-15T08:00:33;12.65;;;2.80;;
12302;SDS011;6214;48.012;7.862;2022-11-15T08:03:07;13.03;;;3.03;;
12302;SDS011;6214;48.012;7.862;2022-11-15T08:05:35;12.43;;;2.80;;
12302;SDS011;6214;48.012;7.862;2022-11-15T08:08:03;13.63;;;3.53;;
12302;SDS011;6214;48.012;7.862;2022-11-15T08:10:31;14.05;;;3.38;;
12302;SDS011;6214;48.012;7.862;2022-11-15T08:13:06;13.80;;;3.63;;
12302;SDS011;6214;48.012;7.862;2022-11-15T08:15:35;15.30;;;3.90;;
12302;SDS011;6214;48.012;7.862;2022-11-15T08:18:04;14.13;;;3.78;;
12302;SDS011;6214;48.012;7.862;2022-11-15T08:20:32;14.45;;;4.18;;
12302;SDS011;6214;48.012;7.862;2022-11-15T08:23:01;17.98;;;5.85;;
12302;SDS011;6214;48.012;7.862;2022-11-15T08:25:30;18.45;;;5.60;;
12302;SDS011;6214;48.012;7.862;2022-11-15T08:27:59;15.00;;;5.00;;
12302;SDS011;6214;48.012;7.862;2022-11-15T08:30:27;14.10;;;3.92;;
12302;SDS011;6214;48.012;7.862;2022-11-15T08:32:56;13.97;;;4.00;;
12302;SDS011;6214;48.012;7.862;2022-11-15T08:35:24;15.77;;;3.83;;
12302;SDS011;6214;48.012;7.862;2022-11-15T08:37:54;14.73;;;3.55;;
12302;SDS011;6214;48.012;7.862;2022-11-15T08:40:21;15.73;;;5.10;;
12302;SDS011;6214;48.012;7.862;2022-11-15T08:42:49;15.77;;;4.43;;
12302;SDS011;6214;48.012;7.862;2022-11-15T08:45:16;13.50;;;3.78;;
12302;SDS011;6214;48.012;7.862;2022-11-15T08:47:44;14.52;;;3.60;;
12302;SDS011;6214;48.012;7.862;2022-11-15T08:50:18;13.10;;;3.38;;
12302;SDS011;6214;48.012;7.862;2022-11-15T08:52:44;14.45;;;4.10;;
12302;SDS011;6214;48.012;7.862;2022-11-15T08:55:11;14.38;;;4.30;;
12302;SDS011;6214;48.012;7.862;2022-11-15T08:57:38;13.52;;;3.70;;
12302;SDS011;6214;48.012;7.862;2022-11-15T09:00:05;16.27;;;5.18;;
12302;SDS011;6214;48.012;7.862;2022-11-15T09:02:32;17.95;;;6.80;;
12302;SDS011;6214;48.012;7.862;2022-11-15T09:04:59;18.27;;;6.30;;
12302;SDS011;6214;48.012;7.862;2022-11-15T09:07:26;16.40;;;4.80;;
12302;SDS011;6214;48.012;7.862;2022-11-15T09:09:56;14.80;;;3.70;;
12302;SDS011;6214;48.012;7.862;2022-11-15T09:12:22;13.77;;;3.08;;
12302;SDS011;6214;48.012;7.862;2022-11-15T09:14:50;14.37;;;3.27;;
12302;SDS011;6214;48.012;7.862;2022-11-15T09:17:17;16.60;;;3.50;;
12302;SDS011;6214;48.012;7.862;2022-11-15T09:19:49;16.50;;;4.80;;
12302;SDS011;6214;48.012;7.862;2022-11-15T09:22:16;15.95;;;4.50;;
12302;SDS011;6214;48.012;7.862;2022-11-15T09:24:43;15.37;;;5.00;;
12302;SDS011;6214;48.012;7.862;2022-11-15T09:27:09;14.85;;;4.63;;
12302;SDS011;6214;48.012;7.862;2022-11-15T09:29:36;14.75;;;3.53;;
12302;SDS011;6214;48.012;7.862;2022-11-15T09:32:03;14.70;;;3.67;;
12302;SDS011;6214;48.012;7.862;2022-11-15T09:34:30;14.20;;;3.88;;
12302;SDS011;6214;48.012;7.862;2022-11-15T09:36:57;13.90;;;3.60;;
12302;SDS011;6214;48.012;7.862;2022-11-15T09:39:24;13.40;;;3.70;;
12302;SDS011;6214;48.012;7.862;2022-11-15T09:41:54;12.93;;;3.78;;
12302;SDS011;6214;48.012;7.862;2022-11-15T09:44:42;13.93;;;3.80;;
12302;SDS011;6214;48.012;7.862;2022-11-15T09:50:09;13.95;;;3.50;;
12302;SDS011;6214;48.012;7.862;2022-11-15T09:52:39;13.60;;;3.50;;
12302;SDS011;6214;48.012;7.862;2022-11-15T09:55:13;16.75;;;5.00;;
12302;SDS011;6214;48.012;7.862;2022-11-15T09:58:00;17.05;;;6.53;;
12302;SDS011;6214;48.012;7.862;2022-11-15T10:00:38;18.15;;;6.82;;
12302;SDS011;6214;48.012;7.862;2022-11-15T10:03:13;16.35;;;5.00;;
12302;SDS011;6214;48.012;7.862;2022-11-15T10:05:45;16.23;;;5.40;;
12302;SDS011;6214;48.012;7.862;2022-11-15T10:11:22;16.20;;;4.80;;
12302;SDS011;6214;48.012;7.862;2022-11-15T10:14:20;14.15;;;3.75;;
12302;SDS011;6214;48.012;7.862;2022-11-15T10:19:22;13.55;;;3.60;;
12302;SDS011;6214;48.012;7.862;2022-11-15T10:25:27;15.32;;;3.60;;
12302;SDS011;6214;48.012;7.862;2022-11-15T10:27:54;13.30;;;3.40;;
12302;SDS011;6214;48.012;7.862;2022-11-15T10:30:28;13.48;;;3.78;;
12302;SDS011;6214;48.012;7.862;2022-11-15T10:32:57;14.00;;;3.70;;
12302;SDS011;6214;48.012;7.862;2022-11-15T10:35:26;15.43;;;3.55;;
12302;SDS011;6214;48.012;7.862;2022-11-15T10:38:09;13.52;;;3.72;;
12302;SDS011;6214;48.012;7.862;2022-11-15T10:40:38;13.70;;;3.60;;
12302;SDS011;6214;48.012;7.862;2022-11-15T10:45:35;13.57;;;3.50;;
12302;SDS011;6214;48.012;7.862;2022-11-15T10:50:39;13.05;;;3.47;;
12302;SDS011;6214;48.012;7.862;2022-11-15T10:53:16;12.90;;;3.10;;
12302;SDS011;6214;48.012;7.862;2022-11-15T10:55:52;13.73;;;3.38;;
12302;SDS011;6214;48.012;7.862;2022-11-15T11:00:55;15.38;;;4.15;;
12302;SDS011;6214;48.012;7.862;2022-11-15T11:03:34;13.75;;;4.10;;
12302;SDS011;6214;48.012;7.862;2022-11-15T11:06:08;14.75;;;4.30;;
12302;SDS011;6214;48.012;7.862;2022-11-15T11:08:35;13.77;;;3.90;;
12302;SDS011;6214;48.012;7.862;2022-11-15T11:11:03;14.98;;;3.95;;
12302;SDS011;6214;48.012;7.862;2022-11-15T11:13:31;12.93;;;3.30;;
12302;SDS011;6214;48.012;7.862;2022-11-15T11:18:33;13.18;;;3.30;;
12302;SDS011;6214;48.012;7.862;2022-11-15T11:21:13;14.30;;;3.65;;
12302;SDS011;6214;48.012;7.862;2022-11-15T11:26:57;13.45;;;3.30;;
12302;SDS011;6214;48.012;7.862;2022-11-15T11:29:38;15.18;;;4.40;;
12302;SDS011;6214;48.012;7.862;2022-11-15T11:32:34;14.10;;;4.28;;
12302;SDS011;6214;48.012;7.862;2022-11-15T11:37:50;13.30;;;3.70;;
12302;SDS011;6214;48.012;7.862;2022-11-15T11:40:35;13.02;;;2.80;;
12302;SDS011;6214;48.012;7.862;2022-11-15T11:43:23;12.90;;;3.05;;
12302;SDS011;6214;48.012;7.862;2022-11-15T11:49:04;13.30;;;2.80;;
12302;SDS011;6214;48.012;7.862;2022-11-15T11:51:39;14.23;;;3.20;;
12302;SDS011;6214;48.012;7.862;2022-11-15T11:54:12;14.10;;;3.10;;
12302;SDS011;6214;48.012;7.862;2022-11-15T11:56:45;13.50;;;3.47;;
12302;SDS011;6214;48.012;7.862;2022-11-15T12:02:35;14.00;;;3.40;;
12302;SDS011;6214;48.012;7.862;2022-11-15T12:08:00;17.70;;;5.72;;
12302;SDS011;6214;48.012;7.862;2022-11-15T12:10:34;16.77;;;6.13;;
12302;SDS011;6214;48.012;7.862;2022-11-15T12:13:04;15.18;;;4.40;;
12302;SDS011;6214;48.012;7.862;2022-11-15T12:15:33;13.90;;;4.15;;
12302;SDS011;6214;48.012;7.862;2022-11-15T12:18:07;14.50;;;4.40;;
12302;SDS011;6214;48.012;7.862;2022-11-15T12:20:40;14.43;;;3.95;;
12302;SDS011;6214;48.012;7.862;2022-11-15T12:23:53;15.40;;;4.60;;
12302;SDS011;6214;48.012;7.862;2022-11-15T12:26:35;15.57;;;4.60;;
12302;SDS011;6214;48.012;7.862;2022-11-15T12:29:11;13.82;;;4.40;;
12302;SDS011;6214;48.012;7.862;2022-11-15T12:31:57;16.45;;;5.32;;
12302;SDS011;6214;48.012;7.862;2022-11-15T12:34:42;20.20;;;9.00;;
12302;SDS011;6214;48.012;7.862;2022-11-15T12:40:05;17.47;;;7.50;;
12302;SDS011;6214;48.012;7.862;2022-11-15T12:42:57;19.60;;;8.38;;
12302;SDS011;6214;48.012;7.862;2022-11-15T12:45:37;15.98;;;5.50;;
12302;SDS011;6214;48.012;7.862;2022-11-15T12:58:48;14.63;;;5.07;;
12302;SDS011;6214;48.012;7.862;2022-11-15T13:06:48;14.90;;;4.40;;
12302;SDS011;6214;48.012;7.862;2022-11-15T13:12:03;13.57;;;3.10;;
12302;SDS011;6214;48.012;7.862;2022-11-15T13:14:41;12.00;;;2.20;;
12302;SDS011;6214;48.012;7.862;2022-11-15T13:17:27;12.45;;;2.72;;
12302;SDS011;6214;48.012;7.862;2022-11-15T13:22:38;12.90;;;2.92;;
12302;SDS011;6214;48.012;7.862;2022-11-15T13:28:31;13.25;;;4.85;;
12302;SDS011;6214;48.012;7.862;2022-11-15T13:31:19;12.98;;;4.32;;
12302;SDS011;6214;48.012;7.862;2022-11-15T13:39:47;11.20;;;1.65;;
12302;SDS011;6214;48.012;7.862;2022-11-15T13:42:16;11.70;;;1.90;;
12302;SDS011;6214;48.012;7.862;2022-11-15T13:45:00;11.77;;;2.40;;
12302;SDS011;6214;48.012;7.862;2022-11-15T13:47:30;16.10;;;8.73;;
12302;SDS011;6214;48.012;7.862;2022-11-15T13:49:58;10.90;;;1.00;;
12302;SDS011;6214;48.012;7.862;2022-11-15T13:52:28;11.18;;;1.00;;
12302;SDS011;6214;48.012;7.862;2022-11-15T13:55:04;10.90;;;0.93;;
12302;SDS011;6214;48.012;7.862;2022-11-15T13:57:59;10.60;;;0.90;;
12302;SDS011;6214;48.012;7.862;2022-11-15T14:00:40;10.73;;;1.13;;
12302;SDS011;6214;48.012;7.862;2022-11-15T14:11:26;13.63;;;5.68;;
12302;SDS011;6214;48.012;7.862;2022-11-15T14:16:37;12.60;;;2.83;;
12302;SDS011;6214;48.012;7.862;2022-11-15T14:19:06;11.50;;;2.07;;
12302;SDS011;6214;48.012;7.862;2022-11-15T14:21:35;11.50;;;1.30;;
12302;SDS011;6214;48.012;7.862;2022-11-15T14:29:47;10.90;;;1.10;;
12302;SDS011;6214;48.012;7.862;2022-11-15T14:32:15;12.90;;;2.70;;
12302;SDS011;6214;48.012;7.862;2022-11-15T14:34:45;13.98;;;3.95;;
12302;SDS011;6214;48.012;7.862;2022-11-15T14:37:33;13.93;;;4.00;;
12302;SDS011;6214;48.012;7.862;2022-11-15T14:40:03;13.73;;;3.60;;
12302;SDS011;6214;48.012;7.862;2022-11-15T14:42:32;12.30;;;2.72;;
12302;SDS011;6214;48.012;7.862;2022-11-15T14:44:59;11.80;;;1.60;;
12302;SDS011;6214;48.012;7.862;2022-11-15T14:47:26;11.50;;;1.30;;
12302;SDS011;6214;48.012;7.862;2022-11-15T14:49:52;11.02;;;1.10;;
12302;SDS011;6214;48.012;7.862;2022-11-15T14:52:23;10.90;;;1.10;;
12302;SDS011;6214;48.012;7.862;2022-11-15T14:54:58;11.05;;;1.30;;
12302;SDS011;6214;48.012;7.862;2022-11-15T14:57:27;10.80;;;1.10;;
12302;SDS011;6214;48.012;7.862;2022-11-15T14:59:54;10.97;;;1.30;;
12302;SDS011;6214;48.012;7.862;2022-11-15T15:02:22;11.10;;;1.40;;
12302;SDS011;6214;48.012;7.862;2022-11-15T15:04:50;11.17;;;1.50;;
12302;SDS011;6214;48.012;7.862;2022-11-15T15:07:17;10.80;;;1.40;;
12302;SDS011;6214;48.012;7.862;2022-11-15T15:09:45;13.40;;;1.90;;
12302;SDS011;6214;48.012;7.862;2022-11-15T15:12:16;12.60;;;2.30;;
12302;SDS011;6214;48.012;7.862;2022-11-15T15:14:45;12.00;;;1.80;;
12302;SDS011;6214;48.012;7.862;2022-11-15T15:17:14;11.20;;;1.00;;
12302;SDS011;6214;48.012;7.862;2022-11-15T15:19:41;12.00;;;1.20;;
12302;SDS011;6214;48.012;7.862;2022-11-15T15:22:14;11.90;;;1.20;;
12302;SDS011;6214;48.012;7.862;2022-11-15T15:24:43;13.50;;;2.40;;
12302;SDS011;6214;48.012;7.862;2022-11-15T15:27:10;14.73;;;4.05;;
12302;SDS011;6214;48.012;7.862;2022-11-15T15:29:37;17.55;;;5.95;;
12302;SDS011;6214;48.012;7.862;2022-11-15T15:32:04;16.10;;;5.45;;
12302;SDS011;6214;48.012;7.862;2022-11-15T15:34:32;17.92;;;5.05;;
12302;SDS011;6214;48.012;7.862;2022-11-15T15:39:49;17.15;;;5.40;;
12302;SDS011;6214;48.012;7.862;2022-11-15T15:42:17;17.85;;;5.30;;
12302;SDS011;6214;48.012;7.862;2022-11-15T15:44:46;16.42;;;5.85;;
12302;SDS011;6214;48.012;7.862;2022-11-15T15:47:15;15.23;;;5.17;;
12302;SDS011;6214;48.012;7.862;2022-11-15T15:49:44;15.77;;;5.32;;
12302;SDS011;6214;48.012;7.862;2022-11-15T15:52:11;15.15;;;4.90;;
12302;SDS011;6214;48.012;7.862;2022-11-15T15:54:38;14.88;;;5.05;;
12302;SDS011;6214;48.012;7.862;2022-11-15T15:57:06;16.50;;;5.30;;
12302;SDS011;6214;48.012;7.862;2022-11-15T15:59:34;16.10;;;5.80;;
12302;SDS011;6214;48.012;7.862;2022-11-15T16:02:01;17.50;;;5.50;;
12302;SDS011;6214;48.012;7.862;2022-11-15T16:04:28;16.00;;;5.50;;
12302;SDS011;6214;48.012;7.862;2022-11-15T16:06:58;15.85;;;5.30;;
12302;SDS011;6214;48.012;7.862;2022-11-15T16:09:26;15.45;;;5.40;;
12302;SDS011;6214;48.012;7.862;2022-11-15T16:12:12;15.40;;;5.10;;
12302;SDS011;6214;48.012;7.862;2022-11-15T16:14:38;16.23;;;5.15;;
12302;SDS011;6214;48.012;7.862;2022-11-15T16:17:05;15.30;;;5.50;;
12302;SDS011;6214;48.012;7.862;2022-11-15T16:19:35;16.38;;;5.40;;
12302;SDS011;6214;48.012;7.862;2022-11-15T16:22:02;14.38;;;4.45;;
12302;SDS011;6214;48.012;7.862;2022-11-15T16:24:29;13.43;;;4.45;;
12302;SDS011;6214;48.012;7.862;2022-11-15T16:26:55;14.45;;;4.60;;
12302;SDS011;6214;48.012;7.862;2022-11-15T16:29:22;14.90;;;5.00;;
12302;SDS011;6214;48.012;7.862;2022-11-15T16:31:49;14.07;;;4.50;;
12302;SDS011;6214;48.012;7.862;2022-11-15T16:34:16;15.05;;;4.30;;
12302;SDS011;6214;48.012;7.862;2022-11-15T16:36:43;14.63;;;4.40;;
12302;SDS011;6214;48.012;7.862;2022-11-15T16:39:11;17.92;;;6.20;;
12302;SDS011;6214;48.012;7.862;2022-11-15T16:41:43;16.50;;;6.60;;
12302;SDS011;6214;48.012;7.862;2022-11-15T16:44:13;18.88;;;9.10;;
12302;SDS011;6214;48.012;7.862;2022-11-15T16:46:43;30.90;;;22.45;;
12302;SDS011;6214;48.012;7.862;2022-11-15T16:49:13;25.23;;;16.58;;
12302;SDS011;6214;48.012;7.862;2022-11-15T16:51:41;23.80;;;13.15;;
12302;SDS011;6214;48.012;7.862;2022-11-15T16:54:10;19.08;;;9.20;;
12302;SDS011;6214;48.012;7.862;2022-11-15T16:56:37;19.73;;;8.85;;
12302;SDS011;6214;48.012;7.862;2022-11-15T16:59:04;20.67;;;9.47;;
12302;SDS011;6214;48.012;7.862;2022-11-15T17:01:33;20.10;;;9.43;;
12302;SDS011;6214;48.012;7.862;2022-11-15T17:04:01;17.80;;;7.60;;
12302;SDS011;6214;48.012;7.862;2022-11-15T17:06:38;17.80;;;6.97;;
12302;SDS011;6214;48.012;7.862;2022-11-15T17:09:07;16.50;;;6.50;;